createdAt,value
2018-03-29T00:01:10.328Z,16.40
2018-03-29T00:03:37.840Z,16.40
2018-03-29T00:06:06.195Z,16.40
2018-03-29T00:08:33.767Z,16.40
2018-03-29T00:11:01.259Z,16.40
2018-03-29T00:13:29.616Z,16.30
2018-03-29T00:15:57.190Z,16.30
2018-03-29T00:18:24.752Z,16.30
2018-03-29T00:20:52.245Z,16.30
2018-03-29T00:23:20.506Z,16.30
2018-03-29T00:25:48.787Z,16.30
2018-03-29T00:28:17.078Z,16.30
2018-03-29T00:30:45.382Z,16.30
2018-03-29T00:33:12.904Z,16.20
2018-03-29T00:35:40.466Z,16.20
2018-03-29T00:38:07.971Z,16.20
2018-03-29T00:40:36.251Z,16.20
2018-03-29T00:43:04.499Z,16.20
2018-03-29T00:45:32.065Z,16.20
2018-03-29T00:47:59.575Z,16.20
2018-03-29T00:50:27.092Z,16.10
2018-03-29T00:52:54.656Z,16.20
2018-03-29T00:55:22.231Z,16.10
2018-03-29T00:57:49.739Z,16.10
2018-03-29T01:00:17.240Z,16.10
2018-03-29T01:02:44.731Z,16.10
2018-03-29T01:05:12.280Z,16.10
2018-03-29T01:07:39.770Z,16.10
2018-03-29T01:10:08.129Z,16.10
2018-03-29T01:12:35.657Z,16.00
2018-03-29T01:15:03.271Z,16.10
2018-03-29T01:17:30.844Z,16.10
2018-03-29T01:19:58.348Z,16.10
2018-03-29T01:22:25.851Z,16.10
2018-03-29T01:24:53.449Z,16.00
2018-03-29T01:27:21.706Z,16.00
2018-03-29T01:29:49.216Z,16.00
2018-03-29T01:32:28.611Z,16.00
2018-03-29T01:34:56.125Z,16.00
2018-03-29T01:37:23.628Z,16.00
2018-03-29T01:39:51.170Z,16.00
2018-03-29T01:42:18.668Z,16.00
2018-03-29T01:44:46.151Z,16.00
2018-03-29T01:47:14.429Z,16.00
2018-03-29T01:49:42.691Z,16.00
2018-03-29T01:52:10.178Z,16.00
2018-03-29T01:54:38.535Z,15.90
2018-03-29T01:57:06.113Z,15.90
2018-03-29T01:59:33.677Z,15.90
2018-03-29T02:02:01.242Z,15.90
2018-03-29T02:04:29.507Z,15.90
2018-03-29T02:06:57.003Z,15.90
2018-03-29T02:09:25.257Z,15.90
2018-03-29T02:11:52.782Z,15.90
2018-03-29T02:14:20.288Z,15.90
2018-03-29T02:16:47.874Z,15.80
2018-03-29T02:19:15.357Z,15.80
2018-03-29T02:21:43.709Z,15.80
2018-03-29T02:24:11.280Z,15.80
2018-03-29T02:26:38.793Z,15.80
2018-03-29T02:29:06.289Z,15.80
2018-03-29T02:31:33.789Z,15.70
2018-03-29T02:34:02.153Z,15.70
2018-03-29T02:36:29.663Z,15.70
2018-03-29T02:38:57.162Z,15.70
2018-03-29T02:41:24.648Z,15.70
2018-03-29T02:43:52.206Z,15.70
2018-03-29T02:46:19.772Z,15.60
2018-03-29T02:48:47.352Z,15.60
2018-03-29T02:51:14.853Z,15.60
2018-03-29T02:53:42.363Z,15.60
2018-03-29T02:56:09.896Z,15.60
2018-03-29T02:58:37.383Z,15.60
2018-03-29T03:01:04.964Z,15.60
2018-03-29T03:03:32.473Z,15.50
2018-03-29T03:05:59.965Z,15.50
2018-03-29T03:08:27.554Z,15.50
2018-03-29T03:10:55.048Z,15.50
2018-03-29T03:13:23.319Z,15.50
2018-03-29T03:15:51.677Z,15.40
2018-03-29T03:18:19.167Z,15.40
2018-03-29T03:20:47.532Z,15.40
2018-03-29T03:23:15.106Z,15.40
2018-03-29T03:25:42.681Z,15.40
2018-03-29T03:28:10.171Z,15.40
2018-03-29T03:30:37.659Z,15.40
2018-03-29T03:33:05.162Z,15.40
2018-03-29T03:35:32.655Z,15.40
2018-03-29T03:38:00.932Z,15.30
2018-03-29T03:40:29.286Z,15.30
2018-03-29T03:42:56.845Z,15.30
2018-03-29T03:45:24.350Z,15.30
2018-03-29T03:47:52.702Z,15.30
2018-03-29T03:50:20.207Z,15.30
2018-03-29T03:52:47.716Z,15.30
2018-03-29T03:55:15.207Z,15.20
2018-03-29T03:57:42.757Z,15.20
2018-03-29T04:00:10.271Z,15.20
2018-03-29T04:02:37.770Z,15.20
2018-03-29T04:05:05.368Z,15.20
2018-03-29T04:07:32.870Z,15.20
2018-03-29T04:10:00.354Z,15.20
2018-03-29T04:12:27.933Z,15.20
2018-03-29T04:14:55.434Z,15.20
2018-03-29T04:17:23.699Z,15.10
2018-03-29T04:19:51.271Z,15.10
2018-03-29T04:22:18.832Z,15.10
2018-03-29T04:24:46.390Z,15.10
2018-03-29T04:27:13.963Z,15.10
2018-03-29T04:29:41.510Z,15.10
2018-03-29T04:32:08.991Z,15.10
2018-03-29T04:34:36.549Z,15.10
2018-03-29T04:37:04.062Z,15.10
2018-03-29T04:39:31.570Z,15.10
2018-03-29T04:41:59.153Z,15.10
2018-03-29T04:44:26.660Z,15.10
2018-03-29T04:46:54.174Z,15.10
2018-03-29T04:49:21.743Z,15.10
2018-03-29T04:51:49.266Z,15.10
2018-03-29T04:54:16.752Z,15.10
2018-03-29T04:56:44.255Z,15.10
2018-03-29T04:59:12.510Z,15.20
2018-03-29T05:01:40.078Z,15.20
2018-03-29T05:04:07.654Z,15.20
2018-03-29T05:06:35.152Z,15.30
2018-03-29T05:09:02.650Z,15.30
2018-03-29T05:11:30.251Z,15.30
2018-03-29T05:13:57.752Z,15.30
2018-03-29T05:16:25.272Z,15.30
2018-03-29T05:18:52.767Z,15.40
2018-03-29T05:21:20.284Z,15.40
2018-03-29T05:23:47.864Z,15.40
2018-03-29T05:26:15.363Z,15.50
2018-03-29T05:28:42.960Z,15.60
2018-03-29T05:31:11.174Z,15.80
2018-03-29T05:33:38.692Z,15.80
2018-03-29T05:36:06.185Z,15.90
2018-03-29T05:38:33.766Z,16.00
2018-03-29T05:41:01.344Z,16.10
2018-03-29T05:43:28.858Z,16.20
2018-03-29T05:45:56.374Z,16.30
2018-03-29T05:48:23.880Z,16.40
2018-03-29T05:50:51.391Z,16.50
2018-03-29T05:53:18.949Z,16.60
2018-03-29T05:55:46.455Z,16.60
2018-03-29T05:58:14.755Z,16.70
2018-03-29T06:00:42.284Z,16.70
2018-03-29T06:03:09.839Z,16.80
2018-03-29T06:05:37.332Z,16.80
2018-03-29T06:08:05.696Z,17.00
2018-03-29T06:10:33.260Z,16.90
2018-03-29T06:13:00.759Z,17.00
2018-03-29T06:15:33.287Z,17.10
2018-03-29T06:18:00.812Z,17.10
2018-03-29T06:20:28.305Z,17.10
2018-03-29T06:22:55.848Z,17.10
2018-03-29T06:25:23.448Z,17.10
2018-03-29T06:27:50.986Z,17.10
2018-03-29T06:30:18.483Z,17.10
2018-03-29T06:32:46.042Z,17.10
2018-03-29T06:35:13.535Z,17.10
2018-03-29T06:37:41.787Z,17.00
2018-03-29T06:40:09.294Z,17.00
2018-03-29T06:42:37.651Z,17.00
2018-03-29T06:45:05.214Z,17.00
2018-03-29T06:47:32.713Z,17.00
2018-03-29T06:50:00.204Z,17.00
2018-03-29T06:52:27.718Z,17.00
2018-03-29T06:54:55.980Z,17.20
2018-03-29T06:57:23.467Z,17.10
2018-03-29T06:59:51.733Z,17.20
2018-03-29T07:02:20.012Z,17.20
2018-03-29T07:04:47.585Z,17.20
2018-03-29T07:07:15.069Z,17.30
2018-03-29T07:09:43.320Z,17.40
2018-03-29T07:12:10.806Z,17.30
2018-03-29T07:14:39.177Z,17.40
2018-03-29T07:17:06.727Z,17.40
2018-03-29T07:19:34.302Z,17.50
2018-03-29T07:22:01.817Z,17.50
2018-03-29T07:24:29.314Z,17.50
2018-03-29T07:26:56.882Z,17.60
2018-03-29T07:29:24.476Z,17.60
2018-03-29T07:31:51.976Z,17.70
2018-03-29T07:34:19.467Z,17.70
2018-03-29T07:36:47.065Z,17.70
2018-03-29T07:39:14.569Z,17.80
2018-03-29T07:41:42.158Z,17.80
2018-03-29T07:44:09.654Z,17.80
2018-03-29T07:46:37.145Z,17.90
2018-03-29T07:49:05.410Z,17.90
2018-03-29T07:51:32.912Z,17.90
2018-03-29T07:54:00.524Z,18.00
2018-03-29T07:56:28.086Z,18.00
2018-03-29T07:58:55.581Z,18.10
2018-03-29T08:01:23.835Z,18.10
2018-03-29T08:03:51.353Z,18.10
2018-03-29T08:06:18.863Z,18.20
2018-03-29T08:08:46.347Z,18.20
2018-03-29T08:11:14.712Z,18.30
2018-03-29T08:13:42.211Z,18.30
2018-03-29T08:16:09.702Z,18.30
2018-03-29T08:18:37.315Z,18.30
2018-03-29T08:21:04.802Z,18.40
2018-03-29T08:23:33.051Z,18.40
2018-03-29T08:26:00.550Z,18.40
2018-03-29T08:28:28.897Z,18.40
2018-03-29T08:30:56.419Z,18.40
2018-03-29T08:33:23.924Z,18.40
2018-03-29T08:35:51.503Z,18.40
2018-03-29T08:38:19.073Z,18.30
2018-03-29T08:40:46.576Z,18.30
2018-03-29T08:43:14.084Z,18.30
2018-03-29T08:45:41.573Z,18.30
2018-03-29T08:48:09.885Z,18.30
2018-03-29T08:50:38.114Z,18.30
2018-03-29T08:53:05.672Z,18.30
2018-03-29T08:55:33.247Z,18.40
2018-03-29T08:58:00.755Z,18.40
2018-03-29T09:00:28.248Z,18.40
2018-03-29T09:02:55.751Z,18.50
2018-03-29T09:05:23.313Z,18.50
2018-03-29T09:07:50.882Z,18.50
2018-03-29T09:10:18.450Z,18.50
2018-03-29T09:12:45.960Z,18.60
2018-03-29T09:15:13.447Z,18.60
2018-03-29T09:17:41.057Z,18.60
2018-03-29T09:20:09.332Z,18.70
2018-03-29T09:22:37.596Z,18.70
2018-03-29T09:25:05.123Z,18.70
2018-03-29T09:27:32.620Z,18.80
2018-03-29T09:30:00.210Z,18.80
2018-03-29T09:32:27.761Z,18.80
2018-03-29T09:34:56.018Z,18.90
2018-03-29T09:37:23.614Z,18.80
2018-03-29T09:39:51.194Z,18.90
2018-03-29T09:42:19.552Z,19.00
2018-03-29T09:44:47.153Z,19.00
2018-03-29T09:47:15.414Z,19.00
2018-03-29T09:49:42.967Z,19.00
2018-03-29T09:52:10.539Z,19.00
2018-03-29T09:54:38.045Z,19.00
2018-03-29T09:57:05.573Z,19.00
2018-03-29T09:59:33.138Z,19.00
2018-03-29T10:02:06.344Z,19.00
2018-03-29T10:04:34.604Z,19.00
2018-03-29T10:07:03.603Z,19.00
2018-03-29T10:09:31.094Z,19.00
2018-03-29T10:11:59.448Z,19.00
2018-03-29T10:14:27.722Z,19.10
2018-03-29T10:16:55.301Z,19.00
2018-03-29T10:19:22.868Z,19.10
2018-03-29T10:21:50.389Z,19.10
2018-03-29T10:24:17.883Z,19.10
2018-03-29T10:26:45.400Z,19.10
2018-03-29T10:29:12.900Z,19.10
2018-03-29T10:31:40.397Z,19.10
2018-03-29T10:34:09.052Z,19.10
2018-03-29T10:36:36.562Z,19.10
2018-03-29T10:39:04.839Z,19.10
2018-03-29T10:41:32.326Z,19.10
2018-03-29T10:43:59.822Z,19.20
2018-03-29T10:46:27.406Z,19.20
2018-03-29T10:48:54.892Z,19.20
2018-03-29T10:51:22.402Z,19.20
2018-03-29T10:53:49.920Z,19.20
2018-03-29T10:56:17.423Z,19.20
2018-03-29T10:58:44.908Z,19.10
2018-03-29T11:01:12.415Z,19.10
2018-03-29T11:03:40.792Z,19.20
2018-03-29T11:06:08.404Z,19.20
2018-03-29T11:08:35.915Z,19.20
2018-03-29T11:11:03.426Z,19.20
2018-03-29T11:13:30.923Z,19.10
2018-03-29T11:15:58.520Z,19.10
2018-03-29T11:18:26.871Z,19.10
2018-03-29T11:23:28.269Z,19.10
2018-03-29T11:25:55.781Z,19.10
2018-03-29T11:28:23.406Z,19.10
2018-03-29T11:30:50.971Z,19.10
2018-03-29T11:33:19.976Z,19.20
2018-03-29T11:35:47.532Z,19.20
2018-03-29T11:38:15.105Z,19.20
2018-03-29T11:40:42.684Z,19.20
2018-03-29T11:43:10.162Z,19.20
2018-03-29T11:45:37.687Z,19.20
2018-03-29T11:48:05.217Z,19.20
2018-03-29T11:50:32.700Z,19.20
2018-03-29T11:53:00.212Z,19.20
2018-03-29T11:55:28.479Z,19.20
2018-03-29T11:57:56.745Z,19.20
2018-03-29T12:00:24.321Z,19.20
2018-03-29T12:02:51.880Z,19.20
2018-03-29T12:05:19.392Z,19.20
2018-03-29T12:07:46.888Z,19.20
2018-03-29T12:10:14.374Z,19.20
2018-03-29T12:12:41.892Z,19.20
2018-03-29T12:15:09.391Z,19.20
2018-03-29T12:17:36.976Z,19.20
2018-03-29T12:20:04.482Z,19.20
2018-03-29T12:22:31.973Z,19.20
2018-03-29T12:24:59.462Z,19.20
2018-03-29T12:27:27.036Z,19.20
2018-03-29T12:29:54.603Z,19.30
2018-03-29T12:32:22.165Z,19.20
2018-03-29T12:34:49.672Z,19.30
2018-03-29T12:37:17.172Z,19.30
2018-03-29T12:39:44.763Z,19.30
2018-03-29T12:42:12.311Z,19.30
2018-03-29T12:44:39.899Z,19.40
2018-03-29T12:47:08.153Z,19.40
2018-03-29T12:49:35.748Z,19.30
2018-03-29T12:52:03.237Z,19.40
2018-03-29T12:54:54.297Z,19.30
2018-03-29T12:57:33.638Z,19.30
2018-03-29T13:00:01.201Z,19.40
2018-03-29T13:02:28.701Z,19.40
2018-03-29T13:04:57.055Z,19.30
2018-03-29T13:07:24.573Z,19.30
2018-03-29T13:09:52.083Z,19.40
2018-03-29T13:12:19.584Z,19.30
2018-03-29T13:14:47.107Z,19.30
2018-03-29T13:17:14.607Z,19.30
2018-03-29T13:19:42.112Z,19.30
2018-03-29T13:22:09.697Z,19.20
2018-03-29T13:24:37.276Z,19.20
2018-03-29T13:27:04.788Z,19.20
2018-03-29T13:29:32.290Z,19.20
2018-03-29T13:31:59.794Z,19.20
2018-03-29T13:34:28.140Z,19.20
2018-03-29T13:36:55.703Z,19.10
2018-03-29T13:39:23.197Z,19.20
2018-03-29T13:41:51.481Z,19.10
2018-03-29T13:44:19.758Z,19.10
2018-03-29T13:46:48.027Z,19.10
2018-03-29T13:49:16.309Z,19.10
2018-03-29T13:51:43.822Z,19.10
2018-03-29T13:54:11.313Z,19.20
2018-03-29T13:56:38.805Z,19.20
2018-03-29T13:59:06.350Z,19.20
2018-03-29T14:01:33.880Z,19.20
2018-03-29T14:04:01.359Z,19.20
2018-03-29T14:06:28.952Z,19.30
2018-03-29T14:08:56.442Z,19.30
2018-03-29T14:11:24.699Z,19.30
2018-03-29T14:13:52.265Z,19.30
2018-03-29T14:16:19.770Z,19.30
2018-03-29T14:18:47.301Z,19.30
2018-03-29T14:21:16.394Z,19.20
2018-03-29T14:23:44.668Z,19.20
2018-03-29T14:26:12.192Z,19.20
2018-03-29T14:28:39.709Z,19.20
2018-03-29T14:31:07.280Z,19.20
2018-03-29T14:33:34.791Z,19.20
2018-03-29T14:36:02.294Z,19.20
2018-03-29T14:38:29.886Z,19.20
2018-03-29T14:40:57.379Z,19.10
2018-03-29T14:43:24.885Z,19.10
2018-03-29T14:45:52.461Z,19.10
2018-03-29T14:48:20.142Z,19.10
2018-03-29T14:50:47.703Z,19.10
2018-03-29T14:56:09.548Z,19.10
2018-03-29T14:58:37.057Z,19.10
2018-03-29T15:01:04.598Z,19.00
2018-03-29T15:03:32.083Z,19.10
2018-03-29T15:05:59.596Z,19.00
2018-03-29T15:08:27.116Z,19.00
2018-03-29T15:10:54.617Z,19.00
2018-03-29T15:13:22.135Z,19.00
2018-03-29T15:15:49.657Z,18.90
2018-03-29T15:18:18.656Z,18.80
2018-03-29T15:20:46.172Z,18.80
2018-03-29T15:23:13.656Z,18.80
2018-03-29T15:25:41.244Z,18.80
2018-03-29T15:28:08.803Z,18.80
2018-03-29T15:30:36.304Z,18.80
2018-03-29T15:33:04.668Z,18.80
2018-03-29T15:35:32.173Z,18.80
2018-03-29T15:37:59.680Z,18.80
2018-03-29T15:40:27.967Z,18.80
2018-03-29T15:42:55.499Z,18.80
2018-03-29T15:45:23.011Z,18.80
2018-03-29T15:47:51.385Z,18.70
2018-03-29T15:50:18.953Z,18.70
2018-03-29T15:52:46.519Z,18.70
2018-03-29T15:55:14.794Z,18.70
2018-03-29T15:57:42.366Z,18.70
2018-03-29T16:00:09.926Z,18.70
2018-03-29T16:02:38.197Z,18.70
2018-03-29T16:05:05.693Z,18.70
2018-03-29T16:07:33.957Z,18.70
2018-03-29T16:10:01.537Z,18.70
2018-03-29T16:12:29.913Z,18.80
2018-03-29T16:14:57.531Z,18.70
2018-03-29T16:17:25.042Z,18.80
2018-03-29T16:19:52.548Z,18.80
2018-03-29T16:22:20.158Z,18.80
2018-03-29T16:24:47.752Z,18.80
2018-03-29T16:27:16.031Z,18.90
2018-03-29T16:29:44.406Z,18.90
2018-03-29T16:32:12.691Z,18.90
2018-03-29T16:34:41.074Z,18.90
2018-03-29T16:37:08.633Z,18.90
2018-03-29T16:39:37.648Z,18.90
2018-03-29T16:42:05.911Z,19.00
2018-03-29T16:44:33.489Z,19.00
2018-03-29T16:47:01.070Z,19.00
2018-03-29T16:49:29.347Z,19.00
2018-03-29T16:51:57.601Z,19.00
2018-03-29T16:54:25.091Z,19.00
2018-03-29T16:56:53.374Z,19.00
2018-03-29T16:59:21.793Z,19.00
2018-03-29T17:01:50.126Z,19.00
2018-03-29T17:04:17.716Z,19.00
2018-03-29T17:06:45.977Z,19.00
2018-03-29T17:09:13.476Z,19.00
2018-03-29T17:11:41.012Z,19.00
2018-03-29T17:14:08.669Z,18.90
2018-03-29T17:16:36.226Z,18.90
2018-03-29T17:19:03.798Z,18.90
2018-03-29T17:21:31.319Z,18.80
2018-03-29T17:23:58.938Z,18.80
2018-03-29T17:26:26.442Z,18.70
2018-03-29T17:28:53.935Z,18.70
2018-03-29T17:31:21.436Z,18.70
2018-03-29T17:33:49.822Z,18.70
2018-03-29T17:36:17.394Z,18.70
2018-03-29T17:38:45.653Z,18.60
2018-03-29T17:41:13.158Z,18.60
2018-03-29T17:43:41.416Z,18.50
2018-03-29T17:46:09.673Z,18.50
2018-03-29T17:48:37.238Z,18.50
2018-03-29T17:51:04.733Z,18.50
2018-03-29T17:53:32.987Z,18.50
2018-03-29T17:56:00.498Z,18.50
2018-03-29T17:58:28.056Z,18.50
2018-03-29T18:00:56.351Z,18.50
2018-03-29T18:03:23.858Z,18.50
2018-03-29T18:05:51.351Z,18.50
2018-03-29T18:08:18.944Z,18.40
2018-03-29T18:10:46.484Z,18.50
2018-03-29T18:13:14.779Z,18.40
2018-03-29T18:15:43.053Z,18.40
2018-03-29T18:18:11.351Z,18.40
2018-03-29T18:20:38.838Z,18.30
2018-03-29T18:23:06.354Z,18.30
2018-03-29T18:25:33.903Z,18.30
2018-03-29T18:28:01.432Z,18.30
2018-03-29T18:30:28.937Z,18.30
2018-03-29T18:32:56.456Z,18.40
2018-03-29T18:35:23.996Z,18.40
2018-03-29T18:37:52.297Z,18.40
2018-03-29T18:40:19.808Z,18.40
2018-03-29T18:42:47.325Z,18.40
2018-03-29T18:45:14.851Z,18.40
2018-03-29T18:47:42.368Z,18.40
2018-03-29T18:50:09.927Z,18.40
2018-03-29T18:52:37.428Z,18.40
2018-03-29T18:55:04.951Z,18.40
2018-03-29T18:57:32.510Z,18.40
2018-03-29T19:00:00.029Z,18.40
2018-03-29T19:02:27.556Z,18.40
2018-03-29T19:04:55.086Z,18.40
2018-03-29T19:07:23.397Z,18.30
2018-03-29T19:09:50.953Z,18.30
2018-03-29T19:12:18.472Z,18.30
2018-03-29T19:14:46.003Z,18.30
2018-03-29T19:17:13.614Z,18.30
2018-03-29T19:19:41.176Z,18.30
2018-03-29T19:22:08.738Z,18.30
2018-03-29T19:24:36.265Z,18.30
2018-03-29T19:27:03.812Z,18.30
2018-03-29T19:29:31.358Z,18.30
2018-03-29T19:31:59.680Z,18.20
2018-03-29T19:34:27.277Z,18.20
2018-03-29T19:36:54.810Z,18.20
2018-03-29T19:39:22.421Z,18.20
2018-03-29T19:41:49.988Z,18.20
2018-03-29T19:44:17.505Z,18.20
2018-03-29T19:46:45.048Z,18.10
2018-03-29T19:49:12.562Z,18.10
2018-03-29T19:51:40.101Z,18.10
2018-03-29T19:54:09.293Z,18.00
2018-03-29T19:56:36.839Z,18.00
2018-03-29T19:59:04.355Z,17.90
2018-03-29T20:01:31.909Z,17.90
2018-03-29T20:03:59.537Z,17.80
2018-03-29T20:06:27.840Z,17.80
2018-03-29T20:08:55.349Z,17.80
2018-03-29T20:11:22.860Z,17.70
2018-03-29T20:13:50.599Z,17.70
2018-03-29T20:16:18.917Z,17.60
2018-03-29T20:18:46.441Z,17.60
2018-03-29T20:21:13.988Z,17.60
2018-03-29T20:23:41.510Z,17.50
2018-03-29T20:26:09.033Z,17.50
2018-03-29T20:28:36.629Z,17.50
2018-03-29T20:31:04.190Z,17.40
2018-03-29T20:33:32.504Z,17.30
2018-03-29T20:36:00.120Z,17.40
2018-03-29T20:38:27.641Z,17.30
2018-03-29T20:40:55.214Z,17.30
2018-03-29T20:43:22.744Z,17.30
2018-03-29T20:45:50.277Z,17.20
2018-03-29T20:48:17.785Z,17.20
2018-03-29T20:50:45.321Z,17.20
2018-03-29T20:53:13.632Z,17.10
2018-03-29T20:55:41.173Z,17.10
2018-03-29T20:58:09.571Z,17.00
2018-03-29T21:00:37.086Z,17.00
2018-03-29T21:03:04.632Z,17.00
2018-03-29T21:05:32.240Z,17.00
2018-03-29T21:07:59.911Z,17.00
2018-03-29T21:10:28.203Z,16.90
2018-03-29T21:12:56.468Z,16.90
2018-03-29T21:15:23.973Z,16.90
2018-03-29T21:17:51.593Z,16.90
2018-03-29T21:20:19.172Z,16.80
2018-03-29T21:22:47.544Z,16.80
2018-03-29T21:25:15.074Z,16.80
2018-03-29T21:27:42.578Z,16.80
2018-03-29T21:30:10.134Z,16.70
2018-03-29T21:32:37.648Z,16.70
2018-03-29T21:35:05.166Z,16.70
2018-03-29T21:37:32.703Z,16.70
2018-03-29T21:40:00.298Z,16.60
2018-03-29T21:42:27.896Z,16.60
2018-03-29T21:44:55.420Z,16.60
2018-03-29T21:47:23.728Z,16.60
2018-03-29T21:49:52.004Z,16.50
2018-03-29T21:52:20.288Z,16.50
2018-03-29T21:54:48.592Z,16.50
2018-03-29T21:57:16.114Z,16.50
2018-03-29T21:59:43.617Z,16.50
2018-03-29T22:02:11.891Z,16.40
2018-03-29T22:04:40.277Z,16.40
2018-03-29T22:07:08.559Z,16.40
2018-03-29T22:09:36.902Z,16.40
2018-03-29T22:12:04.496Z,16.40
2018-03-29T22:14:32.012Z,16.40
2018-03-29T22:16:59.519Z,16.40
2018-03-29T22:19:27.044Z,16.40
2018-03-29T22:21:54.641Z,16.30
2018-03-29T22:24:22.156Z,16.30
2018-03-29T22:26:49.680Z,16.30
2018-03-29T22:29:17.250Z,16.30
2018-03-29T22:31:44.769Z,16.30
2018-03-29T22:34:12.291Z,16.30
2018-03-29T22:36:40.598Z,16.20
2018-03-29T22:39:08.096Z,16.20
2018-03-29T22:41:35.633Z,16.20
2018-03-29T22:44:03.898Z,16.20
2018-03-29T22:46:31.436Z,16.20
2018-03-29T22:48:58.924Z,16.20
2018-03-29T22:51:26.458Z,16.20
2018-03-29T22:53:53.966Z,16.20
2018-03-29T22:56:21.471Z,16.10
2018-03-29T22:58:48.989Z,16.20
2018-03-29T23:01:16.493Z,16.10
2018-03-29T23:03:43.994Z,16.10
2018-03-29T23:06:12.362Z,16.10
2018-03-29T23:08:40.676Z,16.10
2018-03-29T23:11:08.922Z,16.10
2018-03-29T23:13:36.449Z,16.00
2018-03-29T23:16:03.937Z,16.00
2018-03-29T23:18:31.447Z,16.00
2018-03-29T23:20:59.732Z,16.00
2018-03-29T23:23:28.003Z,16.00
2018-03-29T23:25:56.271Z,16.00
2018-03-29T23:28:25.286Z,15.90
2018-03-29T23:30:53.653Z,15.90
2018-03-29T23:33:21.212Z,15.90
2018-03-29T23:35:48.710Z,16.00
2018-03-29T23:38:16.208Z,15.90
2018-03-29T23:40:43.751Z,15.90
2018-03-29T23:43:11.252Z,15.90
2018-03-29T23:45:38.830Z,15.90
2018-03-29T23:48:07.104Z,15.90
2018-03-29T23:50:34.694Z,15.90
2018-03-29T23:53:02.211Z,15.80
2018-03-29T23:55:29.717Z,15.80
2018-03-29T23:58:09.043Z,15.80
